Terminal Aerodrome Forecast
Issued by NWS Upton, NY

Home | Current Version | Previous Version | Text Only | Print | Product List | Glossary On
Versions: 1 2 3 4 5 6 7 8 9 10 11 12 13 14 15 16 17 18 19 20 21 22 23 24 25 26 27 28 29 30
362
FTUS41 KOKX 290540
TAFBDR
TAF
KBDR 290540Z 2906/3006 32004KT P6SM SCT100 BKN150
     FM290700 02004KT P6SM VCSH OVC100
     FM290900 06005KT 6SM -SHRA OVC050
      TEMPO 2912/2913 2SM -SHRA OVC025
     FM291300 09011G17KT 2SM SHRA OVC015
     FM291600 06012G21KT 5SM -SHRA OVC025
     FM291800 03015G24KT P6SM SCT050 OVC120
     FM300000 03006KT P6SM OVC250=

USA.gov is the U.S. government's official web portal to all federal, state and local government web resources and services.